Melbourne, FL (32934)

9:24 PM EST on December 17, 2014 (GMT -0500)
West Eau Gallie | Change Station
CLOSE
Current Station
Personal Weather Station
Location: Melbourne, FL
Elevation: 29 ft
Nearby Weather Stations

Elev 29 ft 28.13 °N, 80.68 °W | Updated 11 seconds ago

Clear
Clear
56.7 °F
Feels Like 56.7 °F
N
0.0
Wind Variable Wind from NW

Today
High -- | Low -- °F
--% Chance of Precip.
Yesterday
High -- | Low -- °F
Precip. -- in
7:08 AM 5:29 PM
Waning Crescent, 18% visible
Pressure 30.13 in
Visibility 10.0 miles
Clouds Clear
Dew Point 54 °F
Humidity 92%
Rainfall 1.38 in
Snow Depth Not available.
UV 0 out of 12
Pollen 6.10 out of 12
Air Quality Not available.
Flu Activity Not available.
METAR KMLB 180153Z 00000KT 10SM CLR 16/14 A3013 RMK AO2 SLP202 T01560144

More Conditions Fewer Conditions

Pressure 30.13 in
Visibility 10.0 miles
Clouds Clear
Dew Point 54 °F
Humidity 92%
Rainfall 1.38 in
Snow Depth Not available.
UV 0 out of 12
Pollen 6.10 out of 12
Air Quality Not available.
Flu Activity Not available.
METAR KMLB 180153Z 00000KT 10SM CLR 16/14 A3013 RMK AO2 SLP202 T01560144

More Conditions Fewer Conditions

10-Day Weather Forecast

Almanac

Astronomy

Dec. 17, 2014 Rise Set
Actual Time
Civil Twilight
Nautical Twilight
Astronomical Twilight
Moon
Length of Visible Light
Length of Day
Tomorrow will be .
, % of the Moon is Illuminated

Today's Extremes

State Highs State Lows

Community

WunderPhotos

Upload Photos

1,778,859 photos uploaded!

WunderBlogs® & News

Nearby

Air Quality

  Air Quality AQ Index Pollutant
Not available.

Snow Depth

Station Depth Elevation

Earthquake Activity

City Distance Mag. Time & Date
Minimum magnitude displayed is 2.5.

Coastal Water Temperatures

Place Temperature

Nearby Weather Stations